sensor_id;sensor_type;location;lat;lon;timestamp;pressure;altitude;pressure_sealevel;temperature;humidity
5814;BME280;2933;52.302;8.134;2023-03-16T00:04:43;100892.41;;;-1.15;100.00
5814;BME280;2933;52.302;8.134;2023-03-16T00:09:46;100904.38;;;-1.17;100.00
5814;BME280;2933;52.302;8.134;2023-03-16T00:14:49;100905.31;;;-1.32;100.00
5814;BME280;2933;52.302;8.134;2023-03-16T00:19:52;100920.66;;;-1.21;100.00
5814;BME280;2933;52.302;8.134;2023-03-16T00:24:55;100915.50;;;-1.17;100.00
5814;BME280;2933;52.302;8.134;2023-03-16T00:29:59;100908.75;;;-1.32;100.00
5814;BME280;2933;52.302;8.134;2023-03-16T00:35:03;100901.88;;;-1.22;100.00
5814;BME280;2933;52.302;8.134;2023-03-16T00:40:07;100894.31;;;-1.47;100.00
5814;BME280;2933;52.302;8.134;2023-03-16T00:45:12;100895.94;;;-1.35;100.00
5814;BME280;2933;52.302;8.134;2023-03-16T00:50:13;100890.03;;;-1.49;100.00
5814;BME280;2933;52.302;8.134;2023-03-16T00:55:15;100878.91;;;-1.43;100.00
5814;BME280;2933;52.302;8.134;2023-03-16T01:00:19;100880.56;;;-1.39;100.00
5814;BME280;2933;52.302;8.134;2023-03-16T01:05:21;100887.50;;;-1.57;100.00
5814;BME280;2933;52.302;8.134;2023-03-16T01:10:23;100889.25;;;-1.64;100.00
5814;BME280;2933;52.302;8.134;2023-03-16T01:15:25;100885.75;;;-1.49;100.00
5814;BME280;2933;52.302;8.134;2023-03-16T01:20:27;100883.22;;;-1.58;100.00
5814;BME280;2933;52.302;8.134;2023-03-16T01:25:29;100878.16;;;-1.72;100.00
5814;BME280;2933;52.302;8.134;2023-03-16T01:30:33;100876.41;;;-1.60;100.00
5814;BME280;2933;52.302;8.134;2023-03-16T01:35:34;100859.25;;;-1.44;100.00
5814;BME280;2933;52.302;8.134;2023-03-16T01:40:36;100845.59;;;-1.43;100.00
5814;BME280;2933;52.302;8.134;2023-03-16T01:46:11;100831.91;;;-1.41;100.00
5814;BME280;2933;52.302;8.134;2023-03-16T01:51:20;100817.38;;;-1.39;100.00
5814;BME280;2933;52.302;8.134;2023-03-16T01:56:26;100811.53;;;-1.66;100.00
5814;BME280;2933;52.302;8.134;2023-03-16T02:01:31;100806.44;;;-1.67;100.00
5814;BME280;2933;52.302;8.134;2023-03-16T02:06:33;100814.00;;;-1.49;100.00
5814;BME280;2933;52.302;8.134;2023-03-16T02:11:36;100805.53;;;-1.58;100.00
5814;BME280;2933;52.302;8.134;2023-03-16T02:16:40;100797.84;;;-1.63;100.00
5814;BME280;2933;52.302;8.134;2023-03-16T02:21:46;100787.69;;;-1.74;100.00
5814;BME280;2933;52.302;8.134;2023-03-16T02:26:56;100786.78;;;-1.68;100.00
5814;BME280;2933;52.302;8.134;2023-03-16T02:31:59;100793.56;;;-1.59;100.00
5814;BME280;2933;52.302;8.134;2023-03-16T02:37:02;100778.22;;;-1.63;100.00
5814;BME280;2933;52.302;8.134;2023-03-16T02:42:04;100783.31;;;-1.58;100.00
5814;BME280;2933;52.302;8.134;2023-03-16T02:47:12;100778.22;;;-1.61;100.00
5814;BME280;2933;52.302;8.134;2023-03-16T02:52:16;100770.34;;;-1.32;100.00
5814;BME280;2933;52.302;8.134;2023-03-16T02:57:18;100767.09;;;-1.55;100.00
5814;BME280;2933;52.302;8.134;2023-03-16T03:02:22;100762.84;;;-1.63;100.00
5814;BME280;2933;52.302;8.134;2023-03-16T03:07:23;100777.19;;;-1.34;100.00
5814;BME280;2933;52.302;8.134;2023-03-16T03:12:30;100786.72;;;-1.60;100.00
5814;BME280;2933;52.302;8.134;2023-03-16T03:17:33;100790.97;;;-1.55;100.00
5814;BME280;2933;52.302;8.134;2023-03-16T03:22:36;100779.00;;;-1.51;100.00
5814;BME280;2933;52.302;8.134;2023-03-16T03:27:38;100772.31;;;-1.75;100.00
5814;BME280;2933;52.302;8.134;2023-03-16T03:32:41;100761.19;;;-1.71;100.00
5814;BME280;2933;52.302;8.134;2023-03-16T03:37:43;100760.31;;;-1.67;100.00
5814;BME280;2933;52.302;8.134;2023-03-16T03:42:44;100753.31;;;-1.43;100.00
5814;BME280;2933;52.302;8.134;2023-03-16T03:47:47;100745.53;;;-1.26;100.00
5814;BME280;2933;52.302;8.134;2023-03-16T03:52:49;100753.72;;;-0.87;100.00
5814;BME280;2933;52.302;8.134;2023-03-16T03:57:50;100750.84;;;-0.55;97.31
5814;BME280;2933;52.302;8.134;2023-03-16T04:02:53;100756.63;;;-0.36;95.83
5814;BME280;2933;52.302;8.134;2023-03-16T04:07:55;100757.31;;;-0.23;96.30
5814;BME280;2933;52.302;8.134;2023-03-16T04:12:58;100758.84;;;-0.06;92.05
5814;BME280;2933;52.302;8.134;2023-03-16T04:18:01;100750.97;;;0.08;91.14
5814;BME280;2933;52.302;8.134;2023-03-16T04:23:02;100749.88;;;0.24;88.62
5814;BME280;2933;52.302;8.134;2023-03-16T04:28:04;100731.66;;;0.40;88.08
5814;BME280;2933;52.302;8.134;2023-03-16T04:33:07;100733.22;;;0.52;86.23
5814;BME280;2933;52.302;8.134;2023-03-16T04:38:09;100736.66;;;0.51;87.65
5814;BME280;2933;52.302;8.134;2023-03-16T04:43:11;100729.72;;;0.57;86.84
5814;BME280;2933;52.302;8.134;2023-03-16T04:48:14;100728.03;;;0.53;85.91
5814;BME280;2933;52.302;8.134;2023-03-16T04:53:16;100727.97;;;0.58;87.80
5814;BME280;2933;52.302;8.134;2023-03-16T04:58:17;100708.06;;;0.69;85.61
5814;BME280;2933;52.302;8.134;2023-03-16T05:03:21;100718.22;;;0.78;86.16
5814;BME280;2933;52.302;8.134;2023-03-16T05:08:22;100719.88;;;0.83;84.66
5814;BME280;2933;52.302;8.134;2023-03-16T05:13:24;100714.47;;;0.96;83.58
5814;BME280;2933;52.302;8.134;2023-03-16T05:18:27;100703.03;;;1.13;82.31
5814;BME280;2933;52.302;8.134;2023-03-16T05:23:29;100707.38;;;1.09;82.83
5814;BME280;2933;52.302;8.134;2023-03-16T05:28:30;100692.09;;;1.02;84.11
5814;BME280;2933;52.302;8.134;2023-03-16T05:33:33;100690.41;;;0.99;83.96
5814;BME280;2933;52.302;8.134;2023-03-16T05:38:35;100695.50;;;1.04;84.26
5814;BME280;2933;52.302;8.134;2023-03-16T05:43:38;100681.00;;;1.00;84.94
5814;BME280;2933;52.302;8.134;2023-03-16T05:48:41;100678.38;;;1.01;85.31
5814;BME280;2933;52.302;8.134;2023-03-16T05:53:42;100690.44;;;0.98;85.68
5814;BME280;2933;52.302;8.134;2023-03-16T05:58:45;100676.03;;;0.89;87.60
5814;BME280;2933;52.302;8.134;2023-03-16T06:03:49;100671.66;;;0.94;88.05
5814;BME280;2933;52.302;8.134;2023-03-16T06:08:51;100686.25;;;0.93;87.74
5814;BME280;2933;52.302;8.134;2023-03-16T06:13:52;100683.53;;;1.01;87.77
5814;BME280;2933;52.302;8.134;2023-03-16T06:18:58;100672.56;;;0.91;88.62
5814;BME280;2933;52.302;8.134;2023-03-16T06:24:00;100677.34;;;1.11;88.99
5814;BME280;2933;52.302;8.134;2023-03-16T06:29:01;100680.66;;;1.18;90.88
5814;BME280;2933;52.302;8.134;2023-03-16T06:34:04;100680.41;;;1.31;88.95
5814;BME280;2933;52.302;8.134;2023-03-16T06:39:06;100684.66;;;1.33;88.98
5814;BME280;2933;52.302;8.134;2023-03-16T06:44:07;100681.91;;;1.42;86.30
5814;BME280;2933;52.302;8.134;2023-03-16T06:49:10;100694.47;;;1.58;86.96
5814;BME280;2933;52.302;8.134;2023-03-16T06:54:12;100698.47;;;1.73;85.62
5814;BME280;2933;52.302;8.134;2023-03-16T06:59:13;100691.22;;;1.89;83.68
5814;BME280;2933;52.302;8.134;2023-03-16T07:04:16;100703.97;;;1.97;83.30
5814;BME280;2933;52.302;8.134;2023-03-16T07:09:17;100704.50;;;2.11;81.28
5814;BME280;2933;52.302;8.134;2023-03-16T07:14:19;100703.88;;;2.39;78.20
5814;BME280;2933;52.302;8.134;2023-03-16T07:19:23;100708.75;;;2.51;76.46
5814;BME280;2933;52.302;8.134;2023-03-16T07:24:25;100721.38;;;2.62;76.59
5814;BME280;2933;52.302;8.134;2023-03-16T07:29:27;100729.84;;;2.67;73.66
5814;BME280;2933;52.302;8.134;2023-03-16T07:34:30;100727.81;;;2.80;73.20
5814;BME280;2933;52.302;8.134;2023-03-16T07:39:31;100723.50;;;2.81;73.63
5814;BME280;2933;52.302;8.134;2023-03-16T07:44:33;100718.97;;;2.90;72.95
5814;BME280;2933;52.302;8.134;2023-03-16T07:49:36;100717.72;;;3.05;73.29
5814;BME280;2933;52.302;8.134;2023-03-16T07:54:37;100718.97;;;3.23;71.80
5814;BME280;2933;52.302;8.134;2023-03-16T07:59:39;100718.09;;;3.25;70.78
5814;BME280;2933;52.302;8.134;2023-03-16T08:04:42;100721.13;;;3.39;71.57
5814;BME280;2933;52.302;8.134;2023-03-16T08:09:44;100724.41;;;3.46;70.96
5814;BME280;2933;52.302;8.134;2023-03-16T08:14:45;100730.31;;;3.51;70.32
5814;BME280;2933;52.302;8.134;2023-03-16T08:19:48;100728.56;;;3.51;69.58
5814;BME280;2933;52.302;8.134;2023-03-16T08:24:50;100732.72;;;3.57;69.22
5814;BME280;2933;52.302;8.134;2023-03-16T08:29:51;100734.19;;;3.66;69.95
5814;BME280;2933;52.302;8.134;2023-03-16T08:34:54;100729.63;;;3.76;69.83
5814;BME280;2933;52.302;8.134;2023-03-16T08:39:56;100726.63;;;3.90;69.46
5814;BME280;2933;52.302;8.134;2023-03-16T08:44:59;100722.75;;;4.04;67.90
5814;BME280;2933;52.302;8.134;2023-03-16T08:50:11;100725.03;;;4.14;66.61
5814;BME280;2933;52.302;8.134;2023-03-16T08:55:13;100713.16;;;4.36;65.18
5814;BME280;2933;52.302;8.134;2023-03-16T09:00:15;100716.31;;;4.45;64.93
5814;BME280;2933;52.302;8.134;2023-03-16T09:05:18;100720.47;;;4.50;65.73
5814;BME280;2933;52.302;8.134;2023-03-16T09:10:22;100718.81;;;4.75;63.81
5814;BME280;2933;52.302;8.134;2023-03-16T09:15:23;100703.63;;;4.91;64.41
5814;BME280;2933;52.302;8.134;2023-03-16T09:20:27;100706.69;;;5.02;63.76
5814;BME280;2933;52.302;8.134;2023-03-16T09:25:28;100709.38;;;5.24;64.00
5814;BME280;2933;52.302;8.134;2023-03-16T09:30:31;100696.69;;;5.42;63.65
5814;BME280;2933;52.302;8.134;2023-03-16T09:35:35;100706.59;;;5.54;64.29
5814;BME280;2933;52.302;8.134;2023-03-16T09:40:37;100698.94;;;5.51;63.46
5814;BME280;2933;52.302;8.134;2023-03-16T09:45:43;100703.72;;;5.62;63.66
5814;BME280;2933;52.302;8.134;2023-03-16T09:50:52;100703.56;;;5.66;64.34
5814;BME280;2933;52.302;8.134;2023-03-16T09:55:58;100700.66;;;5.74;64.07
5814;BME280;2933;52.302;8.134;2023-03-16T10:01:08;100705.59;;;5.82;63.49
5814;BME280;2933;52.302;8.134;2023-03-16T10:06:14;100702.06;;;5.83;64.87
5814;BME280;2933;52.302;8.134;2023-03-16T10:11:29;100700.22;;;5.87;64.60
5814;BME280;2933;52.302;8.134;2023-03-16T10:16:36;100712.91;;;5.94;64.14
5814;BME280;2933;52.302;8.134;2023-03-16T10:21:40;100698.81;;;6.02;64.96
5814;BME280;2933;52.302;8.134;2023-03-16T10:26:52;100701.63;;;6.19;65.51
5814;BME280;2933;52.302;8.134;2023-03-16T10:31:58;100689.09;;;6.29;63.77
5814;BME280;2933;52.302;8.134;2023-03-16T10:37:03;100693.63;;;6.24;63.52
5814;BME280;2933;52.302;8.134;2023-03-16T10:42:13;100678.72;;;6.29;65.48
5814;BME280;2933;52.302;8.134;2023-03-16T10:47:18;100678.97;;;6.45;63.75
5814;BME280;2933;52.302;8.134;2023-03-16T10:52:28;100675.09;;;6.55;63.67
5814;BME280;2933;52.302;8.134;2023-03-16T10:57:34;100679.94;;;6.85;62.96
5814;BME280;2933;52.302;8.134;2023-03-16T11:02:36;100665.41;;;7.21;63.23
5814;BME280;2933;52.302;8.134;2023-03-16T11:07:46;100670.97;;;7.32;60.06
5814;BME280;2933;52.302;8.134;2023-03-16T11:12:49;100672.72;;;7.32;61.07
5814;BME280;2933;52.302;8.134;2023-03-16T11:17:51;100675.13;;;7.36;59.84
5814;BME280;2933;52.302;8.134;2023-03-16T11:22:55;100670.47;;;7.24;60.86
5814;BME280;2933;52.302;8.134;2023-03-16T11:28:02;100674.38;;;7.14;60.92
5814;BME280;2933;52.302;8.134;2023-03-16T11:33:09;100665.75;;;7.13;60.98
5814;BME280;2933;52.302;8.134;2023-03-16T11:38:15;100655.69;;;7.05;61.75
5814;BME280;2933;52.302;8.134;2023-03-16T11:43:30;100647.53;;;6.94;62.63
5814;BME280;2933;52.302;8.134;2023-03-16T11:48:41;100657.91;;;6.94;64.28
5814;BME280;2933;52.302;8.134;2023-03-16T11:54:10;100656.94;;;6.76;65.80
5814;BME280;2933;52.302;8.134;2023-03-16T11:59:28;100660.97;;;6.83;66.39
5814;BME280;2933;52.302;8.134;2023-03-16T12:04:47;100637.25;;;6.91;66.69
5814;BME280;2933;52.302;8.134;2023-03-16T12:10:11;100630.81;;;7.00;65.83
5814;BME280;2933;52.302;8.134;2023-03-16T12:15:24;100623.81;;;7.02;66.17
5814;BME280;2933;52.302;8.134;2023-03-16T12:20:30;100614.41;;;7.18;66.70
5814;BME280;2933;52.302;8.134;2023-03-16T12:25:36;100603.97;;;7.39;64.39
5814;BME280;2933;52.302;8.134;2023-03-16T12:30:47;100586.09;;;7.69;66.44
5814;BME280;2933;52.302;8.134;2023-03-16T12:35:55;100576.03;;;7.81;64.19
5814;BME280;2933;52.302;8.134;2023-03-16T12:41:09;100566.91;;;7.72;62.70
5814;BME280;2933;52.302;8.134;2023-03-16T12:46:14;100560.56;;;7.78;64.38
5814;BME280;2933;52.302;8.134;2023-03-16T12:51:19;100548.25;;;7.64;63.52
5814;BME280;2933;52.302;8.134;2023-03-16T12:56:27;100546.03;;;7.73;63.00
5814;BME280;2933;52.302;8.134;2023-03-16T13:01:36;100526.16;;;7.90;62.94
5814;BME280;2933;52.302;8.134;2023-03-16T13:06:42;100509.72;;;8.07;61.83
5814;BME280;2933;52.302;8.134;2023-03-16T13:11:47;100510.25;;;7.96;61.22
5814;BME280;2933;52.302;8.134;2023-03-16T13:16:50;100498.47;;;7.89;62.82
5814;BME280;2933;52.302;8.134;2023-03-16T13:22:04;100501.00;;;8.08;60.57
5814;BME280;2933;52.302;8.134;2023-03-16T13:27:18;100485.69;;;8.19;60.90
5814;BME280;2933;52.302;8.134;2023-03-16T13:32:23;100472.34;;;8.43;60.50
5814;BME280;2933;52.302;8.134;2023-03-16T13:37:28;100462.13;;;8.56;59.28
5814;BME280;2933;52.302;8.134;2023-03-16T13:42:32;100463.31;;;8.66;59.89
5814;BME280;2933;52.302;8.134;2023-03-16T13:47:34;100451.84;;;8.70;56.94
5814;BME280;2933;52.302;8.134;2023-03-16T13:52:39;100440.47;;;8.55;57.75
5814;BME280;2933;52.302;8.134;2023-03-16T13:57:44;100441.09;;;8.43;55.06
5814;BME280;2933;52.302;8.134;2023-03-16T14:02:49;100418.19;;;8.50;56.28
5814;BME280;2933;52.302;8.134;2023-03-16T14:07:55;100418.19;;;8.50;55.64
5814;BME280;2933;52.302;8.134;2023-03-16T14:13:07;100405.81;;;8.37;55.07
5814;BME280;2933;52.302;8.134;2023-03-16T14:18:12;100408.06;;;8.28;53.92
5814;BME280;2933;52.302;8.134;2023-03-16T14:23:17;100398.22;;;8.17;55.77
5814;BME280;2933;52.302;8.134;2023-03-16T14:28:27;100394.44;;;8.22;57.21
5814;BME280;2933;52.302;8.134;2023-03-16T14:33:31;100386.81;;;8.19;56.38
5814;BME280;2933;52.302;8.134;2023-03-16T14:38:35;100383.66;;;8.13;55.30
5814;BME280;2933;52.302;8.134;2023-03-16T14:43:44;100379.34;;;8.29;57.37
5814;BME280;2933;52.302;8.134;2023-03-16T14:48:46;100380.94;;;8.49;55.73
5814;BME280;2933;52.302;8.134;2023-03-16T14:53:49;100353.47;;;8.60;55.12
5814;BME280;2933;52.302;8.134;2023-03-16T14:58:52;100352.00;;;8.38;53.68
5814;BME280;2933;52.302;8.134;2023-03-16T15:03:54;100340.94;;;8.50;56.41
5814;BME280;2933;52.302;8.134;2023-03-16T15:08:56;100321.88;;;8.50;54.12
5814;BME280;2933;52.302;8.134;2023-03-16T15:13:59;100321.25;;;8.29;54.66
5814;BME280;2933;52.302;8.134;2023-03-16T15:19:13;100304.47;;;8.34;54.60
5814;BME280;2933;52.302;8.134;2023-03-16T15:24:15;100311.16;;;8.22;54.31
5814;BME280;2933;52.302;8.134;2023-03-16T15:29:18;100298.00;;;8.25;55.19
5814;BME280;2933;52.302;8.134;2023-03-16T15:34:20;100288.09;;;8.16;53.93
5814;BME280;2933;52.302;8.134;2023-03-16T15:39:23;100283.31;;;8.40;54.70
5814;BME280;2933;52.302;8.134;2023-03-16T15:44:26;100286.16;;;8.20;54.08
5814;BME280;2933;52.302;8.134;2023-03-16T15:49:28;100283.72;;;8.17;55.29
5814;BME280;2933;52.302;8.134;2023-03-16T15:54:30;100263.63;;;8.03;55.16
5814;BME280;2933;52.302;8.134;2023-03-16T15:59:35;100270.75;;;7.99;55.60
5814;BME280;2933;52.302;8.134;2023-03-16T16:04:37;100266.84;;;7.92;55.24
5814;BME280;2933;52.302;8.134;2023-03-16T16:09:38;100253.72;;;7.78;54.77
5814;BME280;2933;52.302;8.134;2023-03-16T16:14:42;100242.31;;;7.80;55.53
5814;BME280;2933;52.302;8.134;2023-03-16T16:19:43;100242.03;;;7.69;55.15
5814;BME280;2933;52.302;8.134;2023-03-16T16:24:45;100225.03;;;7.79;57.29
5814;BME280;2933;52.302;8.134;2023-03-16T16:29:48;100210.00;;;7.84;56.61
5814;BME280;2933;52.302;8.134;2023-03-16T16:34:49;100217.63;;;7.71;57.06
5814;BME280;2933;52.302;8.134;2023-03-16T16:39:53;100204.97;;;7.65;57.95
5814;BME280;2933;52.302;8.134;2023-03-16T16:44:57;100208.47;;;7.64;57.17
5814;BME280;2933;52.302;8.134;2023-03-16T16:49:59;100201.28;;;7.69;57.38
5814;BME280;2933;52.302;8.134;2023-03-16T16:55:01;100210.34;;;7.62;57.15
5814;BME280;2933;52.302;8.134;2023-03-16T17:00:06;100204.16;;;7.47;57.56
5814;BME280;2933;52.302;8.134;2023-03-16T17:05:14;100214.72;;;7.44;57.11
5814;BME280;2933;52.302;8.134;2023-03-16T17:10:20;100208.84;;;7.40;57.62
5814;BME280;2933;52.302;8.134;2023-03-16T17:15:27;100205.81;;;7.32;58.25
5814;BME280;2933;52.302;8.134;2023-03-16T17:20:29;100204.47;;;7.25;58.81
5814;BME280;2933;52.302;8.134;2023-03-16T17:25:31;100203.78;;;7.21;59.35
5814;BME280;2933;52.302;8.134;2023-03-16T17:30:34;100195.69;;;6.92;60.44
5814;BME280;2933;52.302;8.134;2023-03-16T17:35:36;100191.28;;;6.94;60.16
5814;BME280;2933;52.302;8.134;2023-03-16T17:40:38;100197.56;;;6.73;61.99
5814;BME280;2933;52.302;8.134;2023-03-16T17:45:43;100196.69;;;6.72;61.83
5814;BME280;2933;52.302;8.134;2023-03-16T17:50:46;100185.09;;;6.62;63.57
5814;BME280;2933;52.302;8.134;2023-03-16T17:55:47;100182.66;;;6.59;63.95
5814;BME280;2933;52.302;8.134;2023-03-16T18:00:51;100188.16;;;6.53;64.36
5814;BME280;2933;52.302;8.134;2023-03-16T18:05:53;100178.50;;;6.37;66.61
5814;BME280;2933;52.302;8.134;2023-03-16T18:10:56;100181.31;;;6.33;65.84
5814;BME280;2933;52.302;8.134;2023-03-16T18:16:01;100175.44;;;6.29;67.72
5814;BME280;2933;52.302;8.134;2023-03-16T18:21:02;100175.66;;;6.24;68.04
5814;BME280;2933;52.302;8.134;2023-03-16T18:26:04;100174.06;;;6.22;68.66
5814;BME280;2933;52.302;8.134;2023-03-16T18:31:17;100188.09;;;6.35;68.46
5814;BME280;2933;52.302;8.134;2023-03-16T18:36:23;100184.16;;;6.28;69.71
5814;BME280;2933;52.302;8.134;2023-03-16T18:41:28;100188.41;;;6.29;70.32
5814;BME280;2933;52.302;8.134;2023-03-16T18:46:34;100176.72;;;6.20;70.85
5814;BME280;2933;52.302;8.134;2023-03-16T18:51:36;100186.03;;;6.24;71.20
5814;BME280;2933;52.302;8.134;2023-03-16T18:56:38;100183.97;;;6.31;71.85
5814;BME280;2933;52.302;8.134;2023-03-16T19:01:42;100192.38;;;6.36;71.77
5814;BME280;2933;52.302;8.134;2023-03-16T19:06:44;100170.94;;;6.33;72.54
5814;BME280;2933;52.302;8.134;2023-03-16T19:11:46;100167.81;;;6.26;73.32
5814;BME280;2933;52.302;8.134;2023-03-16T19:16:49;100173.13;;;6.23;73.80
5814;BME280;2933;52.302;8.134;2023-03-16T19:21:52;100163.69;;;6.22;74.80
5814;BME280;2933;52.302;8.134;2023-03-16T19:26:55;100170.19;;;6.11;76.25
5814;BME280;2933;52.302;8.134;2023-03-16T19:31:59;100167.59;;;6.11;75.91
5814;BME280;2933;52.302;8.134;2023-03-16T19:37:01;100169.22;;;6.14;76.17
5814;BME280;2933;52.302;8.134;2023-03-16T19:42:03;100163.50;;;6.07;76.94
5814;BME280;2933;52.302;8.134;2023-03-16T19:47:12;100165.38;;;6.04;78.21
5814;BME280;2933;52.302;8.134;2023-03-16T19:52:21;100154.81;;;6.08;78.05
5814;BME280;2933;52.302;8.134;2023-03-16T19:57:23;100141.91;;;6.07;77.89
5814;BME280;2933;52.302;8.134;2023-03-16T20:02:28;100137.78;;;6.03;79.02
5814;BME280;2933;52.302;8.134;2023-03-16T20:07:36;100144.84;;;5.99;79.51
5814;BME280;2933;52.302;8.134;2023-03-16T20:12:39;100148.22;;;6.01;79.87
5814;BME280;2933;52.302;8.134;2023-03-16T20:17:43;100131.41;;;5.91;80.69
5814;BME280;2933;52.302;8.134;2023-03-16T20:22:45;100143.50;;;5.90;81.49
5814;BME280;2933;52.302;8.134;2023-03-16T20:27:51;100141.22;;;6.03;81.11
5814;BME280;2933;52.302;8.134;2023-03-16T20:32:55;100133.91;;;6.11;81.41
5814;BME280;2933;52.302;8.134;2023-03-16T20:37:57;100131.75;;;6.02;81.98
5814;BME280;2933;52.302;8.134;2023-03-16T20:42:58;100112.63;;;6.05;81.75
5814;BME280;2933;52.302;8.134;2023-03-16T20:48:01;100105.38;;;6.11;82.42
5814;BME280;2933;52.302;8.134;2023-03-16T20:53:03;100096.59;;;6.14;81.67
5814;BME280;2933;52.302;8.134;2023-03-16T20:58:13;100078.22;;;6.19;82.13
5814;BME280;2933;52.302;8.134;2023-03-16T21:03:20;100073.94;;;6.18;82.15
5814;BME280;2933;52.302;8.134;2023-03-16T21:08:22;100071.72;;;6.10;82.46
5814;BME280;2933;52.302;8.134;2023-03-16T21:13:27;100069.13;;;6.10;83.02
5814;BME280;2933;52.302;8.134;2023-03-16T21:18:31;100069.75;;;6.15;82.73
5814;BME280;2933;52.302;8.134;2023-03-16T21:23:32;100054.56;;;6.07;83.31
5814;BME280;2933;52.302;8.134;2023-03-16T21:28:34;100048.63;;;6.05;83.24
5814;BME280;2933;52.302;8.134;2023-03-16T21:33:38;100033.50;;;5.96;83.70
5814;BME280;2933;52.302;8.134;2023-03-16T21:38:41;100033.00;;;5.88;84.96
5814;BME280;2933;52.302;8.134;2023-03-16T21:43:43;100031.13;;;5.91;83.85
5814;BME280;2933;52.302;8.134;2023-03-16T21:48:48;100032.72;;;5.94;84.27
5814;BME280;2933;52.302;8.134;2023-03-16T21:53:50;100041.00;;;5.83;85.56
5814;BME280;2933;52.302;8.134;2023-03-16T21:58:53;100031.19;;;5.90;85.32
5814;BME280;2933;52.302;8.134;2023-03-16T22:03:57;100018.75;;;5.96;84.56
5814;BME280;2933;52.302;8.134;2023-03-16T22:09:00;100011.59;;;5.84;85.56
5814;BME280;2933;52.302;8.134;2023-03-16T22:14:01;100013.19;;;5.87;85.59
5814;BME280;2933;52.302;8.134;2023-03-16T22:19:09;100002.66;;;5.72;87.03
5814;BME280;2933;52.302;8.134;2023-03-16T22:24:14;99996.03;;;5.84;85.97
5814;BME280;2933;52.302;8.134;2023-03-16T22:29:20;100006.19;;;5.89;84.98
5814;BME280;2933;52.302;8.134;2023-03-16T22:34:30;100006.66;;;5.97;84.54
5814;BME280;2933;52.302;8.134;2023-03-16T22:39:35;99995.34;;;5.80;85.58
5814;BME280;2933;52.302;8.134;2023-03-16T22:44:37;99989.00;;;5.69;85.72
5814;BME280;2933;52.302;8.134;2023-03-16T22:49:40;99978.78;;;5.83;85.34
5814;BME280;2933;52.302;8.134;2023-03-16T22:54:42;99962.50;;;5.63;86.07
5814;BME280;2933;52.302;8.134;2023-03-16T22:59:44;99959.72;;;5.49;87.29
5814;BME280;2933;52.302;8.134;2023-03-16T23:04:49;99953.53;;;5.34;87.43
5814;BME280;2933;52.302;8.134;2023-03-16T23:09:50;99956.03;;;5.36;88.63
5814;BME280;2933;52.302;8.134;2023-03-16T23:14:51;99964.78;;;5.33;89.09
5814;BME280;2933;52.302;8.134;2023-03-16T23:19:54;99958.13;;;5.46;87.60
5814;BME280;2933;52.302;8.134;2023-03-16T23:24:56;99962.78;;;5.57;86.12
5814;BME280;2933;52.302;8.134;2023-03-16T23:29:57;99952.03;;;5.47;86.23
5814;BME280;2933;52.302;8.134;2023-03-16T23:35:01;99957.81;;;5.53;85.57
5814;BME280;2933;52.302;8.134;2023-03-16T23:40:06;99950.56;;;5.59;84.69
5814;BME280;2933;52.302;8.134;2023-03-16T23:45:14;99957.97;;;5.49;85.18
5814;BME280;2933;52.302;8.134;2023-03-16T23:50:24;99965.69;;;5.51;85.21
5814;BME280;2933;52.302;8.134;2023-03-16T23:55:26;99961.41;;;5.50;85.06
